Time;durP1;ratioP1;P1;durP2;ratioP2;P2;SDS_P1;SDS_P2;PMS_P1;PMS_P2;Temp;Humidity;BMP_temperature;BMP_pressure;BME280_temperature;BME280_humidity;BME280_pressure;Samples;Min_cycle;Max_cycle;Signal;HPM_P1;HPM_P2
2024/01/10 00:02:06;;;;;;;31.33;21.55;;;;;;;-3.94;100.00;103585.38;5018013;28;20073;-79
2024/01/10 00:04:34;;;;;;;32.35;21.65;;;;;;;-3.95;100.00;103584.47;4994422;28;20046;-77
2024/01/10 00:07:01;;;;;;;32.85;22.85;;;;;;;-3.95;100.00;103587.06;5008571;28;20068;-77
2024/01/10 00:09:28;;;;;;;29.92;22.08;;;;;;;-3.95;100.00;103584.47;5015751;28;20863;-77
2024/01/10 00:11:56;;;;;;;31.50;21.83;;;;;;;-3.97;100.00;103575.69;5024156;28;20041;-77
2024/01/10 00:14:23;;;;;;;32.90;22.65;;;;;;;-3.98;100.00;103570.34;5024536;28;20049;-79
2024/01/10 00:16:51;;;;;;;30.05;20.83;;;;;;;-4.01;100.00;103576.06;5012068;28;20046;-79
2024/01/10 00:19:18;;;;;;;31.83;22.23;;;;;;;-4.02;100.00;103571.69;4988220;28;20053;-79
2024/01/10 00:21:45;;;;;;;29.70;20.00;;;;;;;-4.03;100.00;103568.94;5022946;28;20044;-78
2024/01/10 00:24:13;;;;;;;31.10;21.92;;;;;;;-4.05;100.00;103565.28;5056380;28;20053;-79
2024/01/10 00:26:40;;;;;;;31.30;21.50;;;;;;;-4.07;100.00;103561.66;5023293;28;20052;-77
2024/01/10 00:29:08;;;;;;;29.45;21.50;;;;;;;-4.09;100.00;103564.06;5026011;28;20045;-76
2024/01/10 00:31:35;;;;;;;32.22;21.40;;;;;;;-4.12;100.00;103554.34;5027698;28;20112;-78
2024/01/10 00:34:03;;;;;;;31.40;22.17;;;;;;;-4.12;100.00;103558.56;5027773;28;20045;-78
2024/01/10 00:36:30;;;;;;;31.35;21.77;;;;;;;-4.12;100.00;103553.41;4994462;28;20102;-79
2024/01/10 00:38:58;;;;;;;29.77;21.88;;;;;;;-4.14;100.00;103547.19;5006539;28;20046;-78
2024/01/10 00:41:25;;;;;;;32.20;21.77;;;;;;;-4.14;100.00;103554.91;5015180;28;20072;-77
2024/01/10 00:43:53;;;;;;;31.42;22.73;;;;;;;-4.15;100.00;103554.00;5022832;28;20041;-78
2024/01/10 00:46:20;;;;;;;33.65;22.20;;;;;;;-4.15;100.00;103553.13;5021591;28;20049;-77
2024/01/10 00:48:47;;;;;;;27.48;19.77;;;;;;;-4.15;100.00;103545.38;5003837;28;20049;-77
2024/01/10 00:51:15;;;;;;;25.75;18.92;;;;;;;-4.16;100.00;103543.53;4975790;28;20034;-78
2024/01/10 00:53:42;;;;;;;29.73;20.42;;;;;;;-4.18;100.00;103545.06;5012248;28;20042;-77
2024/01/10 00:56:10;;;;;;;31.08;19.70;;;;;;;-4.19;100.00;103545.81;5008057;28;20064;-78
2024/01/10 00:58:37;;;;;;;30.35;20.83;;;;;;;-4.20;100.00;103541.41;5016959;28;20045;-78
2024/01/10 01:01:04;;;;;;;29.17;19.98;;;;;;;-4.21;100.00;103543.06;5002780;28;20042;-78
2024/01/10 01:03:32;;;;;;;32.97;20.60;;;;;;;-4.21;100.00;103548.22;5025918;28;20045;-78
2024/01/10 01:05:59;;;;;;;30.60;21.50;;;;;;;-4.23;100.00;103543.69;4976254;28;20064;-78
2024/01/10 01:08:27;;;;;;;30.25;20.85;;;;;;;-4.24;100.00;103546.97;5023828;28;20061;-78
2024/01/10 01:10:54;;;;;;;31.77;20.38;;;;;;;-4.26;100.00;103538.19;5028713;28;20044;-78
2024/01/10 01:13:22;;;;;;;32.88;20.38;;;;;;;-4.26;100.00;103545.91;5012365;28;20046;-78
2024/01/10 01:15:49;;;;;;;32.13;21.80;;;;;;;-4.27;100.00;103551.78;5020194;28;20057;-78
2024/01/10 01:18:18;;;;;;;34.17;23.23;;;;;;;-4.30;100.00;103542.09;5021644;28;20046;-78
2024/01/10 01:20:48;;;;;;;34.47;22.52;;;;;;;-4.29;100.00;103553.28;5027721;28;20041;-77
2024/01/10 01:23:16;;;;;;;32.22;22.52;;;;;;;-4.31;100.00;103543.75;4986160;28;20061;-78
2024/01/10 01:26:01;;;;;;;36.65;24.15;;;;;;;-4.29;100.00;103548.16;5020042;28;20057;-79
2024/01/10 01:28:29;;;;;;;36.30;24.60;;;;;;;-4.30;100.00;103549.81;5014520;28;20053;-77
2024/01/10 01:30:57;;;;;;;38.30;23.83;;;;;;;-4.31;100.00;103556.63;5027529;28;20036;-78
2024/01/10 01:33:24;;;;;;;36.33;25.00;;;;;;;-4.32;100.00;103549.66;5024273;28;20049;-78
2024/01/10 01:35:53;;;;;;;38.95;25.60;;;;;;;-4.32;100.00;103547.06;5008374;28;20049;-77
2024/01/10 01:38:20;;;;;;;37.28;23.50;;;;;;;-4.32;100.00;103549.66;4985534;28;20422;-77
2024/01/10 01:40:48;;;;;;;36.80;23.92;;;;;;;-4.33;100.00;103546.91;5004629;28;20073;-76
2024/01/10 01:43:25;;;;;;;39.80;24.98;;;;;;;-4.34;100.00;103546.00;5004583;28;20411;-78
2024/01/10 01:45:54;;;;;;;34.00;23.17;;;;;;;-4.33;100.00;103541.75;5013447;28;20052;-77
2024/01/10 01:48:24;;;;;;;34.50;24.38;;;;;;;-4.34;100.00;103535.69;5015519;28;20411;-77
2024/01/10 01:50:58;;;;;;;38.45;24.88;;;;;;;-4.33;100.00;103536.59;5023760;28;20122;-78
2024/01/10 01:53:28;;;;;;;42.22;24.60;;;;;;;-4.33;100.00;103547.84;5002819;28;20049;-78
2024/01/10 01:55:56;;;;;;;39.45;24.80;;;;;;;-4.35;100.00;103533.91;5025181;28;20037;-78
2024/01/10 01:58:24;;;;;;;39.28;24.70;;;;;;;-4.35;100.00;103539.03;4993075;28;20868;-78
2024/01/10 02:00:52;;;;;;;37.53;24.23;;;;;;;-4.33;100.00;103536.59;5017073;28;20053;-77
2024/01/10 02:03:21;;;;;;;38.22;25.00;;;;;;;-4.33;100.00;103537.53;5023642;28;20049;-78
2024/01/10 02:05:49;;;;;;;43.00;25.63;;;;;;;-4.33;100.00;103534.97;5026634;28;20041;-79
2024/01/10 02:08:16;;;;;;;37.60;23.63;;;;;;;-4.33;100.00;103532.41;5000919;28;20060;-77
2024/01/10 02:10:44;;;;;;;36.72;24.08;;;;;;;-4.33;100.00;103542.69;5022711;28;20026;-78
2024/01/10 02:13:12;;;;;;;35.65;24.88;;;;;;;-4.34;100.00;103532.22;5005943;28;20045;-78
2024/01/10 02:15:40;;;;;;;37.50;25.17;;;;;;;-4.35;100.00;103532.97;5018875;28;20387;-78
2024/01/10 02:18:10;;;;;;;38.33;25.10;;;;;;;-4.37;100.00;103535.38;5024507;28;20044;-78
2024/01/10 02:20:38;;;;;;;38.20;25.35;;;;;;;-4.36;100.00;103524.34;5024244;28;20048;-79
2024/01/10 02:23:06;;;;;;;38.75;25.25;;;;;;;-4.36;100.00;103526.00;4996154;28;20050;-77
2024/01/10 02:25:34;;;;;;;38.28;24.90;;;;;;;-4.38;100.00;103518.13;5005792;28;20426;-77
2024/01/10 02:28:02;;;;;;;38.03;25.42;;;;;;;-4.37;100.00;103527.63;5016480;28;20491;-78
2024/01/10 02:30:29;;;;;;;38.95;25.33;;;;;;;-4.39;100.00;103526.56;5004028;28;20279;-78
2024/01/10 02:32:57;;;;;;;36.30;23.60;;;;;;;-4.41;100.00;103520.34;5018965;28;20053;-78
2024/01/10 02:35:24;;;;;;;35.35;24.15;;;;;;;-4.41;100.00;103524.59;5024912;28;20046;-78
2024/01/10 02:37:53;;;;;;;38.78;25.48;;;;;;;-4.42;100.00;103521.13;5018904;28;20056;-78
2024/01/10 02:40:21;;;;;;;40.53;25.75;;;;;;;-4.42;100.00;103515.03;5014238;28;20131;-79
2024/01/10 02:42:50;;;;;;;38.15;25.17;;;;;;;-4.44;100.00;103520.03;5021039;28;20495;-77
2024/01/10 02:45:18;;;;;;;39.28;24.50;;;;;;;-4.41;100.00;103516.88;5003405;28;20041;-78
2024/01/10 02:47:45;;;;;;;38.22;26.13;;;;;;;-4.41;100.00;103516.88;5015059;28;20609;-78
2024/01/10 02:50:16;;;;;;;35.70;24.92;;;;;;;-4.41;100.00;103517.78;5004600;28;20085;-78
2024/01/10 02:52:44;;;;;;;41.58;26.33;;;;;;;-4.42;100.00;103520.19;5025258;28;20050;-78
2024/01/10 02:55:11;;;;;;;38.88;25.05;;;;;;;-4.42;100.00;103521.13;5000930;28;20053;-77
2024/01/10 02:57:39;;;;;;;36.03;23.67;;;;;;;-4.43;100.00;103515.78;5025517;28;20041;-77
2024/01/10 03:00:07;;;;;;;39.70;24.13;;;;;;;-4.43;100.00;103508.06;5001032;28;20061;-77
2024/01/10 03:02:35;;;;;;;39.17;24.90;;;;;;;-4.43;100.00;103502.94;5039978;28;20046;-77
2024/01/10 03:05:02;;;;;;;37.00;24.17;;;;;;;-4.43;100.00;103505.50;5012186;28;20054;-77
2024/01/10 03:07:30;;;;;;;35.90;22.52;;;;;;;-4.43;100.00;103508.06;5021825;28;20045;-78
2024/01/10 03:09:57;;;;;;;37.63;22.08;;;;;;;-4.42;100.00;103494.44;5000640;28;20638;-78
2024/01/10 03:12:25;;;;;;;32.35;21.75;;;;;;;-4.44;100.00;103490.78;5022062;28;20061;-78
2024/01/10 03:14:52;;;;;;;35.13;21.70;;;;;;;-4.45;100.00;103495.03;5022054;28;20058;-77
2024/01/10 03:17:20;;;;;;;35.70;22.20;;;;;;;-4.46;100.00;103492.28;5007076;28;20067;-78
2024/01/10 03:19:47;;;;;;;34.90;23.50;;;;;;;-4.46;100.00;103480.34;4997266;28;20053;-78
2024/01/10 03:22:15;;;;;;;38.55;24.50;;;;;;;-4.46;100.00;103488.09;5016770;28;20045;-78
2024/01/10 03:24:42;;;;;;;36.60;25.15;;;;;;;-4.46;100.00;103482.94;5022571;28;20037;-77
2024/01/10 03:27:09;;;;;;;33.60;24.08;;;;;;;-4.46;100.00;103482.94;5001393;28;20041;-76
2024/01/10 03:29:37;;;;;;;37.45;23.63;;;;;;;-4.46;100.00;103485.50;5025978;28;20041;-78
2024/01/10 03:32:04;;;;;;;35.35;23.48;;;;;;;-4.47;100.00;103480.19;4987460;28;20086;-78
2024/01/10 03:34:32;;;;;;;35.20;23.08;;;;;;;-4.48;100.00;103479.25;5015406;28;20049;-78
2024/01/10 03:36:59;;;;;;;36.03;22.55;;;;;;;-4.46;100.00;103471.69;5023534;28;20045;-77
2024/01/10 03:39:26;;;;;;;34.30;23.02;;;;;;;-4.46;100.00;103472.63;5020524;28;20057;-77
2024/01/10 03:41:54;;;;;;;38.17;23.33;;;;;;;-4.45;100.00;103474.44;4976698;28;20045;-79
2024/01/10 03:44:21;;;;;;;34.33;23.00;;;;;;;-4.44;100.00;103470.19;5053800;28;20053;-78
2024/01/10 03:46:49;;;;;;;34.97;22.63;;;;;;;-4.43;100.00;103469.47;5003853;28;20053;-77
2024/01/10 03:49:17;;;;;;;33.08;21.48;;;;;;;-4.41;100.00;103476.59;5005653;28;20050;-78
2024/01/10 03:51:45;;;;;;;32.50;20.77;;;;;;;-4.40;100.00;103467.22;4995414;28;20045;-77
2024/01/10 03:54:12;;;;;;;35.22;20.85;;;;;;;-4.39;100.00;103463.88;5018329;28;20046;-77
2024/01/10 03:56:40;;;;;;;31.42;20.60;;;;;;;-4.38;100.00;103461.47;5037894;28;20050;-77
2024/01/10 03:59:07;;;;;;;31.05;19.55;;;;;;;-4.37;100.00;103467.53;4988270;28;20038;-78
2024/01/10 04:01:35;;;;;;;30.08;19.85;;;;;;;-4.37;100.00;103467.53;5000079;28;20038;-77
2024/01/10 04:04:02;;;;;;;29.98;19.35;;;;;;;-4.37;100.00;103471.00;5003000;28;20046;-79
2024/01/10 04:06:30;;;;;;;32.08;20.85;;;;;;;-4.34;100.00;103465.28;5027943;28;20045;-78
2024/01/10 04:08:57;;;;;;;29.77;20.70;;;;;;;-4.35;100.00;103460.88;5057879;28;20099;-78
2024/01/10 04:11:24;;;;;;;31.48;21.15;;;;;;;-4.33;100.00;103460.31;5021931;28;20046;-79
2024/01/10 04:13:52;;;;;;;30.92;21.67;;;;;;;-4.32;100.00;103461.22;5005222;28;20053;-79
2024/01/10 04:16:19;;;;;;;31.73;21.50;;;;;;;-4.33;100.00;103462.88;5007196;28;20053;-79
2024/01/10 04:18:47;;;;;;;35.25;21.73;;;;;;;-4.34;100.00;103461.03;5023096;28;20042;-79
2024/01/10 04:21:14;;;;;;;30.10;22.38;;;;;;;-4.34;100.00;103465.28;5018829;28;20045;-79
2024/01/10 04:23:44;;;;;;;31.42;21.25;;;;;;;-4.36;100.00;103467.69;5030166;28;20053;-78
2024/01/10 04:26:12;;;;;;;22.50;15.55;;;;;;;-4.38;100.00;103463.16;5027397;28;20057;-78
2024/01/10 04:28:41;;;;;;;34.58;22.10;;;;;;;-4.39;100.00;103461.31;5000753;28;20046;-77
2024/01/10 04:31:08;;;;;;;29.92;20.77;;;;;;;-4.40;100.00;103462.06;5018093;28;20033;-79
2024/01/10 04:33:36;;;;;;;31.02;21.08;;;;;;;-4.41;100.00;103466.28;4992526;28;20053;-77
2024/01/10 04:36:04;;;;;;;33.83;23.10;;;;;;;-4.40;100.00;103462.06;5022624;28;20054;-77
2024/01/10 04:38:31;;;;;;;35.20;22.63;;;;;;;-4.40;100.00;103468.13;5043411;28;20050;-77
2024/01/10 04:40:59;;;;;;;32.80;22.98;;;;;;;-4.42;100.00;103456.75;5027823;28;20071;-77
2024/01/10 04:43:26;;;;;;;37.22;24.45;;;;;;;-4.43;100.00;103457.50;4988545;28;20046;-78
2024/01/10 04:45:53;;;;;;;38.72;25.15;;;;;;;-4.43;100.00;103461.75;5025817;28;20049;-78
2024/01/10 04:48:21;;;;;;;37.60;23.70;;;;;;;-4.43;100.00;103464.31;4990084;28;20821;-78
2024/01/10 04:50:48;;;;;;;39.03;26.30;;;;;;;-4.44;100.00;103454.75;5029553;28;21099;-78
2024/01/10 04:53:16;;;;;;;34.50;23.42;;;;;;;-4.46;100.00;103461.41;5017230;28;21207;-78
2024/01/10 04:55:43;;;;;;;38.72;25.33;;;;;;;-4.48;100.00;103456.09;5053074;28;20057;-78
2024/01/10 04:58:12;;;;;;;38.50;26.80;;;;;;;-4.49;100.00;103456.84;5001292;28;22262;-78
2024/01/10 05:00:40;;;;;;;43.70;28.48;;;;;;;-4.51;100.00;103453.22;5029780;28;20056;-79
2024/01/10 05:03:07;;;;;;;40.22;27.02;;;;;;;-4.51;100.00;103453.22;4995072;28;20050;-78
2024/01/10 05:05:35;;;;;;;41.05;26.98;;;;;;;-4.51;100.00;103437.78;5004610;28;20038;-78
2024/01/10 05:08:02;;;;;;;43.05;28.25;;;;;;;-4.53;100.00;103445.31;5018664;28;20049;-77
2024/01/10 05:10:30;;;;;;;40.50;26.83;;;;;;;-4.52;100.00;103435.94;5006577;28;20045;-78
2024/01/10 05:12:57;;;;;;;36.95;24.90;;;;;;;-4.54;100.00;103437.44;5007885;28;20042;-79
2024/01/10 05:15:25;;;;;;;43.28;27.65;;;;;;;-4.53;100.00;103439.28;4991555;28;20065;-78
2024/01/10 05:17:52;;;;;;;41.47;26.20;;;;;;;-4.55;100.00;103435.63;5006108;28;20076;-78
2024/01/10 05:20:20;;;;;;;39.20;26.60;;;;;;;-4.56;100.00;103439.84;5012406;28;20853;-77
2024/01/10 05:22:48;;;;;;;38.58;25.90;;;;;;;-4.57;100.00;103438.03;5019843;28;20498;-78
2024/01/10 05:25:18;;;;;;;34.90;24.58;;;;;;;-4.58;100.00;103443.91;5014561;28;20064;-78
2024/01/10 05:27:46;;;;;;;40.22;24.98;;;;;;;-4.58;100.00;103430.16;5009395;28;20053;-78
2024/01/10 05:30:13;;;;;;;40.53;25.40;;;;;;;-4.59;100.00;103431.81;4983348;28;20054;-78
2024/01/10 05:32:43;;;;;;;38.47;25.50;;;;;;;-4.58;100.00;103435.28;5015422;28;20414;-77
2024/01/10 05:35:11;;;;;;;38.10;24.15;;;;;;;-4.58;100.00;103437.88;5005089;28;20049;-77
2024/01/10 05:37:38;;;;;;;33.38;23.35;;;;;;;-4.57;100.00;103424.25;5019741;28;20079;-78
2024/01/10 05:40:06;;;;;;;39.50;24.63;;;;;;;-4.57;100.00;103426.84;5013601;28;20400;-79
2024/01/10 05:42:34;;;;;;;38.17;24.88;;;;;;;-4.57;100.00;103422.59;5021081;28;20057;-79
2024/01/10 05:45:02;;;;;;;38.42;24.00;;;;;;;-4.56;100.00;103433.78;4998362;28;20060;-79
2024/01/10 05:47:29;;;;;;;36.17;23.65;;;;;;;-4.57;100.00;103421.69;5005429;28;20069;-79
2024/01/10 05:49:57;;;;;;;33.58;23.50;;;;;;;-4.57;100.00;103429.41;5041540;28;20037;-79
2024/01/10 05:52:24;;;;;;;37.17;24.42;;;;;;;-4.56;100.00;103429.53;5021116;28;20045;-78
2024/01/10 05:54:53;;;;;;;32.75;23.00;;;;;;;-4.54;100.00;103440.00;5020622;28;20498;-80
2024/01/10 05:57:21;;;;;;;35.53;22.70;;;;;;;-4.56;100.00;103434.69;5016099;28;20056;-79
2024/01/10 05:59:48;;;;;;;33.28;21.35;;;;;;;-4.56;100.00;103428.66;5023972;28;20057;-78
2024/01/10 06:02:16;;;;;;;31.95;21.83;;;;;;;-4.57;100.00;103431.97;5002515;28;20050;-78
2024/01/10 06:04:44;;;;;;;29.92;20.50;;;;;;;-4.58;100.00;103425.00;5005203;28;20056;-79
2024/01/10 06:07:11;;;;;;;27.98;19.55;;;;;;;-4.58;100.00;103431.03;5008454;28;20391;-77
2024/01/10 06:09:39;;;;;;;32.35;20.05;;;;;;;-4.58;100.00;103433.63;5015671;28;20049;-79
2024/01/10 06:12:07;;;;;;;31.75;22.40;;;;;;;-4.59;100.00;103424.09;4997725;28;20038;-78
2024/01/10 06:14:34;;;;;;;34.80;21.80;;;;;;;-4.59;100.00;103436.06;5002029;28;20064;-78
2024/01/10 06:17:03;;;;;;;29.98;20.77;;;;;;;-4.59;100.00;103421.53;4991668;28;20041;-77
2024/01/10 06:19:31;;;;;;;36.70;22.17;;;;;;;-4.60;100.00;103426.50;5005625;28;20050;-78
2024/01/10 06:21:59;;;;;;;34.60;21.65;;;;;;;-4.62;100.00;103435.72;5003705;28;20046;-78
2024/01/10 06:24:26;;;;;;;34.25;21.63;;;;;;;-4.64;100.00;103429.50;5012895;28;20056;-79
2024/01/10 06:26:53;;;;;;;32.55;20.35;;;;;;;-4.66;100.00;103428.44;5012064;28;20049;-77
2024/01/10 06:29:21;;;;;;;33.58;21.58;;;;;;;-4.69;100.00;103436.72;5023521;28;20037;-78
2024/01/10 06:31:50;;;;;;;35.80;22.20;;;;;;;-4.72;100.00;103432.16;4997122;28;20057;-78
2024/01/10 06:34:18;;;;;;;39.33;23.55;;;;;;;-4.73;100.00;103435.47;5007014;28;20060;-79
2024/01/10 06:36:45;;;;;;;34.17;22.52;;;;;;;-4.75;100.00;103436.97;5001450;28;20422;-79
2024/01/10 06:39:12;;;;;;;30.35;20.65;;;;;;;-4.76;100.00;103444.56;5017302;28;20045;-77
2024/01/10 06:41:40;;;;;;;33.67;20.73;;;;;;;-4.77;100.00;103442.72;5003113;28;20042;-77
2024/01/10 06:44:08;;;;;;;38.10;21.85;;;;;;;-4.78;100.00;103440.88;5006254;28;20057;-77
2024/01/10 06:46:36;;;;;;;31.98;19.85;;;;;;;-4.79;100.00;103450.25;5014409;28;20054;-77
2024/01/10 06:49:03;;;;;;;35.50;20.85;;;;;;;-4.83;100.00;103447.22;4985935;28;20053;-77
2024/01/10 06:51:31;;;;;;;37.28;21.83;;;;;;;-4.83;100.00;103447.22;5022069;28;20033;-77
2024/01/10 06:54:08;;;;;;;34.60;20.13;;;;;;;-4.86;100.00;103442.63;5009449;28;20038;-78
2024/01/10 06:56:36;;;;;;;37.60;22.85;;;;;;;-4.88;100.00;103448.38;5017854;28;20052;-78
2024/01/10 06:59:03;;;;;;;40.15;22.45;;;;;;;-4.89;100.00;103455.19;5015577;28;20072;-78
2024/01/10 07:01:31;;;;;;;42.13;22.75;;;;;;;-4.89;100.00;103452.63;5011004;28;20485;-78
2024/01/10 07:03:58;;;;;;;37.92;22.20;;;;;;;-4.89;100.00;103452.63;4995279;28;20045;-79
2024/01/10 07:06:26;;;;;;;39.08;21.08;;;;;;;-4.93;100.00;103453.03;5002051;28;20061;-78
2024/01/10 07:08:53;;;;;;;35.25;21.55;;;;;;;-4.97;100.00;103463.72;5018061;28;20053;-79
2024/01/10 07:11:21;;;;;;;38.40;21.75;;;;;;;-5.01;100.00;103451.28;4996540;28;20052;-78
2024/01/10 07:13:49;;;;;;;39.72;21.55;;;;;;;-5.05;100.00;103444.88;4999634;28;20056;-79
2024/01/10 07:16:18;;;;;;;38.15;21.38;;;;;;;-5.06;100.00;103449.91;5023533;28;20041;-79
2024/01/10 07:18:47;;;;;;;41.95;22.55;;;;;;;-5.10;100.00;103448.66;4994567;28;20053;-78
2024/01/10 07:21:14;;;;;;;39.70;22.27;;;;;;;-5.12;100.00;103455.28;5033867;28;20046;-79
2024/01/10 07:23:43;;;;;;;40.85;20.13;;;;;;;-5.14;100.00;103459.31;5005796;28;20045;-78
2024/01/10 07:26:14;;;;;;;43.47;20.38;;;;;;;-5.17;100.00;103459.91;4995417;28;20060;-78
2024/01/10 07:28:41;;;;;;;43.78;21.75;;;;;;;-5.19;100.00;103445.97;5001761;28;20053;-78
2024/01/10 07:31:11;;;;;;;43.97;21.42;;;;;;;-5.21;100.00;103468.03;5001008;28;20072;-77
2024/01/10 07:33:39;;;;;;;42.53;20.63;;;;;;;-5.25;100.00;103453.03;4997000;28;20077;-77
2024/01/10 07:36:07;;;;;;;42.83;20.55;;;;;;;-5.28;100.00;103455.25;4962453;28;20053;-77
2024/01/10 07:38:34;;;;;;;43.40;20.80;;;;;;;-5.29;100.00;103458.59;5038034;28;20045;-77
2024/01/10 07:41:02;;;;;;;45.70;21.58;;;;;;;-5.32;100.00;103463.38;4976713;28;20057;-77
2024/01/10 07:43:29;;;;;;;49.58;20.60;;;;;;;-5.35;100.00;103458.84;5011006;28;20056;-78
2024/01/10 07:45:57;;;;;;;48.13;21.02;;;;;;;-5.34;100.00;103459.75;5013990;28;20050;-78
2024/01/10 07:48:24;;;;;;;47.72;20.33;;;;;;;-5.34;100.00;103465.78;5036373;28;20057;-78
2024/01/10 07:50:52;;;;;;;41.60;19.83;;;;;;;-5.35;100.00;103463.03;5002385;28;20074;-78
2024/01/10 07:53:19;;;;;;;40.15;19.15;;;;;;;-5.35;100.00;103469.13;5026245;28;20049;-79
2024/01/10 07:55:47;;;;;;;40.13;19.20;;;;;;;-5.35;100.00;103483.59;4996304;28;20049;-78
2024/01/10 07:58:15;;;;;;;42.00;19.50;;;;;;;-5.35;100.00;103484.53;5014643;28;20053;-78
2024/01/10 08:00:43;;;;;;;45.58;19.42;;;;;;;-5.34;100.00;103485.44;5007837;28;20079;-78
2024/01/10 08:03:10;;;;;;;42.53;18.00;;;;;;;-5.32;100.00;103489.09;5034740;28;20048;-79
2024/01/10 08:05:38;;;;;;;38.83;17.55;;;;;;;-5.32;100.00;103489.09;5004553;28;20517;-79
2024/01/10 08:08:05;;;;;;;38.63;17.58;;;;;;;-5.30;100.00;103500.47;5047776;28;20518;-79
2024/01/10 08:10:33;;;;;;;42.28;17.98;;;;;;;-5.30;100.00;103490.16;5026593;28;20049;-78
2024/01/10 08:13:05;;;;;;;37.13;18.97;;;;;;;-5.28;100.00;103480.97;5001325;28;20056;-77
2024/01/10 08:15:34;;;;;;;39.55;17.63;;;;;;;-5.28;100.00;103473.25;5019484;28;20430;-78
2024/01/10 08:18:04;;;;;;;36.67;17.75;;;;;;;-5.28;100.00;103476.72;5006471;28;20049;-77
2024/01/10 08:20:32;;;;;;;41.83;18.10;;;;;;;-5.27;100.00;103472.53;5018057;28;20053;-79
2024/01/10 08:23:00;;;;;;;40.33;17.95;;;;;;;-5.26;100.00;103466.63;4999574;28;20049;-77
2024/01/10 08:25:27;;;;;;;38.75;18.65;;;;;;;-5.25;100.00;103475.28;5014583;28;20401;-78
2024/01/10 08:27:56;;;;;;;43.88;18.90;;;;;;;-5.25;100.00;103470.13;5004819;28;20502;-78
2024/01/10 08:30:24;;;;;;;37.05;17.30;;;;;;;-5.26;100.00;103474.34;5011303;28;20057;-78
2024/01/10 08:32:52;;;;;;;32.50;16.60;;;;;;;-5.25;100.00;103468.47;5051041;28;20076;-78
2024/01/10 08:35:20;;;;;;;34.13;15.75;;;;;;;-5.23;100.00;103476.34;5037178;28;20050;-79
2024/01/10 08:37:49;;;;;;;37.58;16.15;;;;;;;-5.21;100.00;103480.00;5006162;28;20053;-78
2024/01/10 08:40:17;;;;;;;35.17;18.27;;;;;;;-5.18;100.00;103478.69;5010181;28;20050;-78
2024/01/10 08:42:45;;;;;;;31.42;16.15;;;;;;;-5.16;100.00;103477.19;4998685;28;20046;-79
2024/01/10 08:45:12;;;;;;;33.50;17.52;;;;;;;-5.15;100.00;103480.66;5016862;28;20068;-80
2024/01/10 08:47:40;;;;;;;33.00;16.67;;;;;;;-5.14;100.00;103462.84;5017019;28;20045;-79
2024/01/10 08:50:10;;;;;;;33.15;15.75;;;;;;;-5.13;100.00;103467.22;5018749;28;20062;-78
2024/01/10 08:52:38;;;;;;;36.92;17.48;;;;;;;-5.12;100.00;103466.47;5005811;28;20041;-77
2024/01/10 08:55:06;;;;;;;37.42;17.83;;;;;;;-5.10;100.00;103477.84;4990544;28;20045;-78
2024/01/10 08:57:39;;;;;;;35.70;15.73;;;;;;;-5.07;100.00;103461.81;5017390;28;20045;-78
2024/01/10 09:00:11;;;;;;;34.08;17.05;;;;;;;-5.04;100.00;103454.44;4990407;28;20419;-78
2024/01/10 09:02:39;;;;;;;34.08;16.98;;;;;;;-5.01;100.00;103464.13;5010212;28;20049;-79
2024/01/10 09:05:09;;;;;;;35.42;16.23;;;;;;;-4.98;100.00;103474.78;5010671;28;20057;-78
2024/01/10 09:07:37;;;;;;;;;;;;;;;-4.97;100.00;103463.72;4997985;28;20048;-77
2024/01/10 09:10:07;;;;;;;32.80;14.90;;;;;;;-4.94;100.00;103471.78;5011575;28;19928;-78
2024/01/10 09:12:35;;;;;;;32.88;15.73;;;;;;;-4.91;100.00;103467.88;5034360;28;20053;-78
2024/01/10 09:15:03;;;;;;;31.00;15.95;;;;;;;-4.88;100.00;103464.72;5001910;28;20054;-77
2024/01/10 09:17:30;;;;;;;31.70;15.73;;;;;;;-4.83;100.00;103460.09;5012729;28;20079;-78
2024/01/10 09:19:58;;;;;;;33.95;16.90;;;;;;;-4.80;100.00;103469.03;5013565;28;20057;-77
2024/01/10 09:22:25;;;;;;;28.52;14.55;;;;;;;-4.78;100.00;103470.13;5020989;28;20037;-78
2024/01/10 09:24:52;;;;;;;32.42;15.43;;;;;;;-4.77;100.00;103464.19;5038451;28;20045;-80
2024/01/10 09:27:20;;;;;;;30.92;15.30;;;;;;;-4.72;100.00;103467.28;5005489;28;20045;-78
2024/01/10 09:29:47;;;;;;;28.80;15.50;;;;;;;-4.64;100.00;103461.28;4996786;28;20064;-78
2024/01/10 09:32:14;;;;;;;90.22;19.67;;;;;;;-4.58;100.00;103463.59;4987223;28;20825;-79
2024/01/10 09:34:42;;;;;;;29.52;14.20;;;;;;;-4.52;100.00;103456.53;5045805;28;20052;-78
2024/01/10 09:37:09;;;;;;;28.17;13.93;;;;;;;-4.42;100.00;103453.25;5020377;28;20053;-78
2024/01/10 09:39:37;;;;;;;27.05;14.02;;;;;;;-4.36;100.00;103454.81;4995888;28;20065;-78
2024/01/10 09:42:04;;;;;;;1182.35;121.35;;;;;;;-4.33;100.00;103450.00;5019622;28;20054;-77
2024/01/10 09:44:33;;;;;;;31.95;15.88;;;;;;;-4.24;100.00;103444.00;5011149;28;20057;-77
2024/01/10 09:47:02;;;;;;;67.57;23.38;;;;;;;-4.18;100.00;103442.03;4974469;28;20050;-76
2024/01/10 09:49:29;;;;;;;28.13;14.45;;;;;;;-4.09;100.00;103447.25;5006948;28;20061;-78
2024/01/10 09:52:01;;;;;;;27.48;14.07;;;;;;;-4.03;100.00;103438.50;5018484;28;20060;-78
2024/01/10 09:54:30;;;;;;;27.33;13.95;;;;;;;-3.94;100.00;103439.44;5008832;28;20049;-78
2024/01/10 09:56:58;;;;;;;56.65;16.95;;;;;;;-3.85;100.00;103446.31;4998607;28;20042;-78
2024/01/10 09:59:26;;;;;;;23.17;12.00;;;;;;;-3.82;100.00;103441.47;5053309;28;20072;-78
2024/01/10 10:01:56;;;;;;;239.18;45.55;;;;;;;-3.73;100.00;103457.88;5003500;28;20045;-78
2024/01/10 10:04:27;;;;;;;24.90;12.68;;;;;;;-3.63;100.00;103460.66;5009120;28;20482;-78
2024/01/10 10:07:00;;;;;;;27.38;13.73;;;;;;;-3.60;100.00;103455.78;5010834;28;20053;-79
2024/01/10 10:09:31;;;;;;;28.25;15.35;;;;;;;-3.56;100.00;103452.78;5008559;28;20045;-78
2024/01/10 10:11:59;;;;;;;24.95;12.55;;;;;;;-3.46;100.00;103445.97;5001047;28;20494;-78
2024/01/10 10:14:29;;;;;;;25.13;13.20;;;;;;;-3.43;100.00;103446.31;5009316;28;20732;-77
2024/01/10 10:17:14;;;;;;;18.77;11.38;;;;;;;-3.43;100.00;103452.34;5001609;28;20571;-78
2024/01/10 10:19:43;;;;;;;20.40;11.45;;;;;;;-3.39;100.00;103446.75;5012795;28;20046;-78
2024/01/10 10:22:11;;;;;;;21.75;11.27;;;;;;;-3.35;100.00;103443.72;5018441;28;20518;-78
2024/01/10 10:24:40;;;;;;;18.75;11.15;;;;;;;-3.29;100.00;103440.84;5026244;28;20064;-79
2024/01/10 10:27:09;;;;;;;17.47;10.47;;;;;;;-3.25;100.00;103443.00;4998966;28;20497;-77
2024/01/10 10:29:37;;;;;;;21.13;11.50;;;;;;;-3.23;100.00;103443.13;5014856;28;20040;-78
2024/01/10 10:32:06;;;;;;;17.40;9.90;;;;;;;-3.21;100.00;103447.72;5010721;28;20080;-78
2024/01/10 10:37:23;;;;;;;19.08;11.85;;;;;;;-3.17;100.00;103436.94;4593021;23;20059;-77
2024/01/10 10:39:50;;;;;;;18.75;11.05;;;;;;;-3.12;100.00;103434.81;4891830;29;20749;-77
2024/01/10 10:42:19;;;;;;;19.80;11.30;;;;;;;-3.07;100.00;103437.88;4915164;29;20056;-76
2024/01/10 10:44:50;;;;;;;19.45;11.75;;;;;;;-3.06;100.00;103432.88;4879047;29;20062;-76
2024/01/10 10:47:21;;;;;;;21.00;11.25;;;;;;;-3.04;100.00;103444.25;4894507;29;20058;-76
2024/01/10 10:49:54;;;;;;;19.67;10.75;;;;;;;-3.00;100.00;103445.47;4872767;29;20059;-77
2024/01/10 10:52:23;;;;;;;21.48;11.35;;;;;;;-3.02;100.00;103442.72;4904984;29;20060;-77
2024/01/10 10:54:55;;;;;;;20.63;11.45;;;;;;;-3.01;100.00;103431.63;4903067;29;20508;-77
2024/01/10 10:57:25;;;;;;;20.00;11.73;;;;;;;-2.99;100.00;103426.63;4885917;29;20063;-77
2024/01/10 10:59:53;;;;;;;;;;;;;;;-2.94;100.00;103436.66;4911019;29;20048;-76
2024/01/10 11:02:24;;;;;;;22.90;11.50;;;;;;;-2.92;100.00;103431.66;4906833;29;19922;-77
2024/01/10 11:04:59;;;;;;;19.75;11.15;;;;;;;-2.88;100.00;103433.78;4896186;29;20587;-77
2024/01/10 11:07:27;;;;;;;22.95;12.07;;;;;;;-2.84;100.00;103424.66;4902388;29;20059;-75
2024/01/10 11:09:56;;;;;;;17.92;10.85;;;;;;;-2.82;100.00;103424.03;4919738;29;20040;-77